sensor_id;sensor_type;location;lat;lon;timestamp;temperature;humidity
30467;DHT22;17258;52.560;13.046;2023-03-16T00:05:07;5.40;58.50
30467;DHT22;17258;52.560;13.046;2023-03-16T00:15:09;5.30;58.40
30467;DHT22;17258;52.560;13.046;2023-03-16T00:25:12;5.20;58.50
30467;DHT22;17258;52.560;13.046;2023-03-16T00:35:13;5.20;58.50
30467;DHT22;17258;52.560;13.046;2023-03-16T00:45:14;5.10;58.50
30467;DHT22;17258;52.560;13.046;2023-03-16T00:55:15;5.00;59.10
30467;DHT22;17258;52.560;13.046;2023-03-16T01:05:15;4.90;58.50
30467;DHT22;17258;52.560;13.046;2023-03-16T01:15:16;4.80;58.60
30467;DHT22;17258;52.560;13.046;2023-03-16T01:25:17;4.80;58.70
30467;DHT22;17258;52.560;13.046;2023-03-16T01:35:18;4.70;58.70
30467;DHT22;17258;52.560;13.046;2023-03-16T01:56:06;4.60;59.40
30467;DHT22;17258;52.560;13.046;2023-03-16T02:06:17;4.60;58.80
30467;DHT22;17258;52.560;13.046;2023-03-16T02:16:18;4.50;58.90
30467;DHT22;17258;52.560;13.046;2023-03-16T02:26:45;4.50;58.80
30467;DHT22;17258;52.560;13.046;2023-03-16T02:36:49;4.40;58.90
30467;DHT22;17258;52.560;13.046;2023-03-16T02:46:54;4.30;58.80
30467;DHT22;17258;52.560;13.046;2023-03-16T02:56:56;4.30;58.90
30467;DHT22;17258;52.560;13.046;2023-03-16T03:06:58;4.20;58.80
30467;DHT22;17258;52.560;13.046;2023-03-16T03:17:08;4.20;58.80
30467;DHT22;17258;52.560;13.046;2023-03-16T03:27:09;4.10;58.80
30467;DHT22;17258;52.560;13.046;2023-03-16T03:37:10;4.10;58.90
30467;DHT22;17258;52.560;13.046;2023-03-16T03:47:11;4.00;58.90
30467;DHT22;17258;52.560;13.046;2023-03-16T03:57:11;3.90;58.80
30467;DHT22;17258;52.560;13.046;2023-03-16T04:07:12;3.80;58.80
30467;DHT22;17258;52.560;13.046;2023-03-16T04:17:13;3.80;58.90
30467;DHT22;17258;52.560;13.046;2023-03-16T04:27:13;3.70;58.90
30467;DHT22;17258;52.560;13.046;2023-03-16T04:37:14;3.70;58.90
30467;DHT22;17258;52.560;13.046;2023-03-16T04:47:15;3.60;58.90
30467;DHT22;17258;52.560;13.046;2023-03-16T04:57:16;3.50;58.90
30467;DHT22;17258;52.560;13.046;2023-03-16T05:07:18;3.50;58.90
30467;DHT22;17258;52.560;13.046;2023-03-16T05:17:19;3.40;58.90
30467;DHT22;17258;52.560;13.046;2023-03-16T05:27:19;3.40;59.00
30467;DHT22;17258;52.560;13.046;2023-03-16T05:37:20;3.30;59.00
30467;DHT22;17258;52.560;13.046;2023-03-16T05:47:21;3.30;59.00
30467;DHT22;17258;52.560;13.046;2023-03-16T05:57:22;3.30;59.10
30467;DHT22;17258;52.560;13.046;2023-03-16T06:07:23;3.20;59.20
30467;DHT22;17258;52.560;13.046;2023-03-16T06:17:24;3.20;59.20
30467;DHT22;17258;52.560;13.046;2023-03-16T06:27:24;3.20;59.30
30467;DHT22;17258;52.560;13.046;2023-03-16T06:37:25;3.30;59.40
30467;DHT22;17258;52.560;13.046;2023-03-16T06:47:26;3.40;59.60
30467;DHT22;17258;52.560;13.046;2023-03-16T06:57:26;3.50;59.90
30467;DHT22;17258;52.560;13.046;2023-03-16T07:07:27;3.70;60.20
30467;DHT22;17258;52.560;13.046;2023-03-16T07:17:28;3.90;60.60
30467;DHT22;17258;52.560;13.046;2023-03-16T07:27:28;4.20;60.90
30467;DHT22;17258;52.560;13.046;2023-03-16T07:37:29;4.60;61.30
30467;DHT22;17258;52.560;13.046;2023-03-16T07:47:30;5.10;61.40
30467;DHT22;17258;52.560;13.046;2023-03-16T07:57:30;5.50;61.40
30467;DHT22;17258;52.560;13.046;2023-03-16T08:07:31;6.00;61.40
30467;DHT22;17258;52.560;13.046;2023-03-16T08:17:32;6.40;61.20
30467;DHT22;17258;52.560;13.046;2023-03-16T08:27:33;6.80;61.20
30467;DHT22;17258;52.560;13.046;2023-03-16T08:37:34;7.20;61.00
30467;DHT22;17258;52.560;13.046;2023-03-16T08:47:36;7.60;60.90
30467;DHT22;17258;52.560;13.046;2023-03-16T08:57:36;7.90;60.70
30467;DHT22;17258;52.560;13.046;2023-03-16T09:07:38;8.30;60.60
30467;DHT22;17258;52.560;13.046;2023-03-16T09:17:39;8.70;60.50
30467;DHT22;17258;52.560;13.046;2023-03-16T09:27:41;9.00;60.30
30467;DHT22;17258;52.560;13.046;2023-03-16T09:37:42;9.30;59.10
30467;DHT22;17258;52.560;13.046;2023-03-16T09:47:45;9.60;59.10
30467;DHT22;17258;52.560;13.046;2023-03-16T09:57:48;10.00;59.10
30467;DHT22;17258;52.560;13.046;2023-03-16T10:08:13;10.40;59.10
30467;DHT22;17258;52.560;13.046;2023-03-16T10:18:23;10.70;58.00
30467;DHT22;17258;52.560;13.046;2023-03-16T10:28:29;11.10;58.30
30467;DHT22;17258;52.560;13.046;2023-03-16T10:38:45;11.40;58.00
30467;DHT22;17258;52.560;13.046;2023-03-16T10:48:58;11.50;57.20
30467;DHT22;17258;52.560;13.046;2023-03-16T10:59:00;11.80;57.20
30467;DHT22;17258;52.560;13.046;2023-03-16T11:09:23;12.00;57.40
30467;DHT22;17258;52.560;13.046;2023-03-16T11:19:32;12.20;56.20
30467;DHT22;17258;52.560;13.046;2023-03-16T11:40:16;12.50;56.60
30467;DHT22;17258;52.560;13.046;2023-03-16T12:00:38;13.40;56.90
30467;DHT22;17258;52.560;13.046;2023-03-16T12:21:24;14.30;55.60
30467;DHT22;17258;52.560;13.046;2023-03-16T12:31:49;14.70;55.90
30467;DHT22;17258;52.560;13.046;2023-03-16T12:42:01;15.10;55.00
30467;DHT22;17258;52.560;13.046;2023-03-16T12:52:12;15.50;55.50
30467;DHT22;17258;52.560;13.046;2023-03-16T13:02:17;15.80;54.50
30467;DHT22;17258;52.560;13.046;2023-03-16T13:32:43;16.40;53.80
30467;DHT22;17258;52.560;13.046;2023-03-16T13:42:47;16.50;53.40
30467;DHT22;17258;52.560;13.046;2023-03-16T13:52:57;16.60;52.70
30467;DHT22;17258;52.560;13.046;2023-03-16T14:03:10;16.60;52.30
30467;DHT22;17258;52.560;13.046;2023-03-16T14:23:35;16.70;50.70
30467;DHT22;17258;52.560;13.046;2023-03-16T14:33:40;16.70;51.90
30467;DHT22;17258;52.560;13.046;2023-03-16T14:43:55;16.60;51.40
30467;DHT22;17258;52.560;13.046;2023-03-16T14:53:57;16.50;50.20
30467;DHT22;17258;52.560;13.046;2023-03-16T15:03:57;16.40;51.20
30467;DHT22;17258;52.560;13.046;2023-03-16T15:13:58;16.30;51.00
30467;DHT22;17258;52.560;13.046;2023-03-16T15:24:13;16.10;51.70
30467;DHT22;17258;52.560;13.046;2023-03-16T15:34:14;15.90;50.90
30467;DHT22;17258;52.560;13.046;2023-03-16T15:44:16;15.80;50.70
30467;DHT22;17258;52.560;13.046;2023-03-16T15:54:17;15.70;50.60
30467;DHT22;17258;52.560;13.046;2023-03-16T16:04:19;15.50;50.50
30467;DHT22;17258;52.560;13.046;2023-03-16T16:14:23;15.40;50.30
30467;DHT22;17258;52.560;13.046;2023-03-16T16:24:25;15.20;50.10
30467;DHT22;17258;52.560;13.046;2023-03-16T16:34:25;15.00;50.20
30467;DHT22;17258;52.560;13.046;2023-03-16T16:44:29;14.70;49.80
30467;DHT22;17258;52.560;13.046;2023-03-16T16:54:30;14.30;49.60
30467;DHT22;17258;52.560;13.046;2023-03-16T17:04:31;14.00;50.00
30467;DHT22;17258;52.560;13.046;2023-03-16T17:14:32;13.70;49.60
30467;DHT22;17258;52.560;13.046;2023-03-16T17:24:32;13.40;49.60
30467;DHT22;17258;52.560;13.046;2023-03-16T17:34:33;13.10;49.80
30467;DHT22;17258;52.560;13.046;2023-03-16T17:44:38;12.80;49.80
30467;DHT22;17258;52.560;13.046;2023-03-16T17:54:40;12.50;49.80
30467;DHT22;17258;52.560;13.046;2023-03-16T18:04:41;12.30;50.00
30467;DHT22;17258;52.560;13.046;2023-03-16T18:14:42;12.10;50.20
30467;DHT22;17258;52.560;13.046;2023-03-16T18:24:42;11.90;50.30
30467;DHT22;17258;52.560;13.046;2023-03-16T18:34:44;11.80;50.30
30467;DHT22;17258;52.560;13.046;2023-03-16T18:44:45;11.70;50.20
30467;DHT22;17258;52.560;13.046;2023-03-16T18:54:47;11.70;50.30
30467;DHT22;17258;52.560;13.046;2023-03-16T19:04:48;11.60;50.30
30467;DHT22;17258;52.560;13.046;2023-03-16T19:14:48;11.60;50.30
30467;DHT22;17258;52.560;13.046;2023-03-16T19:24:53;11.50;50.20
30467;DHT22;17258;52.560;13.046;2023-03-16T19:34:55;11.50;50.10
30467;DHT22;17258;52.560;13.046;2023-03-16T19:44:56;11.50;50.30
30467;DHT22;17258;52.560;13.046;2023-03-16T19:54:56;11.50;50.30
30467;DHT22;17258;52.560;13.046;2023-03-16T20:04:57;11.40;50.20
30467;DHT22;17258;52.560;13.046;2023-03-16T20:14:58;11.50;50.30
30467;DHT22;17258;52.560;13.046;2023-03-16T20:24:59;11.50;50.20
30467;DHT22;17258;52.560;13.046;2023-03-16T20:35:01;11.40;50.10
30467;DHT22;17258;52.560;13.046;2023-03-16T20:45:13;11.40;50.10
30467;DHT22;17258;52.560;13.046;2023-03-16T20:55:17;11.40;50.00
30467;DHT22;17258;52.560;13.046;2023-03-16T21:05:21;11.50;50.30
30467;DHT22;17258;52.560;13.046;2023-03-16T21:15:28;11.50;50.20
30467;DHT22;17258;52.560;13.046;2023-03-16T21:25:33;11.40;50.00
30467;DHT22;17258;52.560;13.046;2023-03-16T21:35:36;11.40;50.20
30467;DHT22;17258;52.560;13.046;2023-03-16T21:45:37;11.40;50.30
30467;DHT22;17258;52.560;13.046;2023-03-16T21:55:39;11.30;50.20
30467;DHT22;17258;52.560;13.046;2023-03-16T22:05:40;11.30;50.30
30467;DHT22;17258;52.560;13.046;2023-03-16T22:15:42;11.20;50.40
30467;DHT22;17258;52.560;13.046;2023-03-16T22:25:43;11.10;50.40
30467;DHT22;17258;52.560;13.046;2023-03-16T22:35:44;11.00;50.40
30467;DHT22;17258;52.560;13.046;2023-03-16T22:45:44;11.00;50.50
30467;DHT22;17258;52.560;13.046;2023-03-16T22:55:45;10.90;50.50
30467;DHT22;17258;52.560;13.046;2023-03-16T23:05:46;10.80;50.50
30467;DHT22;17258;52.560;13.046;2023-03-16T23:15:48;10.70;50.60
30467;DHT22;17258;52.560;13.046;2023-03-16T23:25:49;10.60;50.60
30467;DHT22;17258;52.560;13.046;2023-03-16T23:35:49;10.60;50.60
30467;DHT22;17258;52.560;13.046;2023-03-16T23:45:50;10.40;50.70
30467;DHT22;17258;52.560;13.046;2023-03-16T23:55:51;10.40;50.80
